メインページ
METAR-TAF:

METAR-TAF

空港 :

カムループス, ブリティッシュコロンビア州, カナダ

緯度: 50-42N, 経度: 120-27W, 海抜: 345m

現時点の気象観測

当レポートは42分前の02:00(UTC)に作成
の風 6kt
気温 0°C
湿度 86%
気圧 1011 hPa
視程: 32.2km
高度1600ftの曇り

METAR: CYKA 070200Z 09006KT 20SM OVC016 00/M02 A2986 RMK SC8 SLP130

時間: 18:42 (02:42 UTC)

予報

当レポートは2時間4分前の00:38(UTC)に作成
予報は07日の 01時(UTC)から 07日の 13時(UTC)まで有効
の風 8kt
視程: 10km
高度1500ftの曇り
07日の 01時(UTC)から 07日の 04時(UTC)まで一時的に
視程: 10km
高度1500ftの雲は散在している
高度2500ftの曇り
小雪
07日の 0400時(UTC)から
の風 10kt
視程: 10km
高度1500ftの曇り
07日の 05時(UTC)から 07日の 10時(UTC)まで一時的に
視程: 4.8km
小雪
確率 30%
07日の 05時(UTC)から 07日の 10時(UTC)まで
視程: 3.2km
小雪, (弱い) 凍雨
07日の 1000時(UTC)から
の風 8kt
視程: 10km
高度1500ftの千切れ雲あり
高度4000ftの曇り
確率 30%
07日の 10時(UTC)から 07日の 13時(UTC)まで
視程: 1.6km
高度800ftの千切れ雲あり

TAF: CYKA 070038Z 0701/0713 10008KT P6SM OVC015 TEMPO 0701/0704 P6SM -SN SCT015 OVC025 FM070400 10010KT P6SM OVC015 TEMPO 0705/0710 3SM -SN PROB30 0705/0710 2SM -SN -PL FM071000 10008KT P6SM BKN015 OVC040 PROB30 0710/0713 1SM BR BKN008 RMK NXT FCST BY 070700Z

4,000以上の空港の気象観測と天気予報(METAR報とTAF報)

利用可能な観測所は地図上に黄色い丸と赤い丸で示す。

丸の上にカーソルを重ねると観測所名を参照できる。

次にクリックすると気象観測と天気予報を参照できる。

マップの切り替え:黒色「×」印の緑ボタンをクリックして拡大、「-」印の緑ボタンをクリックして縮小、緑色の三角印をクリックして隣りの地図に切り替え


METAR-TAF: